Coffeyville, Kansas
Current Conditions -  °F | °C
As of 9:52 AM on Friday 24 Oct 2014 (Local Time) from KCFV Reporting Station
Clear Clear  
Wind Chill: 17°   Ceiling: Unl
Heat Index: 17°   Visibility: 10mi
Dew Point: 13°   Wind: 12mph
Humidity: 80%   Direction: 200°SSW
Pressure: 30.11"   Gusts: NA
Location:  37.03°N, 95.62°W
Report Text: KCFV 241452Z AUTO 20010KT 10SM CLR 17/13 A3011 RMK AO2 SLP194 T01670133 53006
Loading
Personal Weather Stations






























Interactive Weather Map
Tropical Storm Tracking
New forecast layout! Learn more

10-Day Weather Forecast

Advertisements
Track Severe Weather on mobile